createdAt,value
2022-12-25T00:00:02.078Z,10.32
2022-12-25T00:02:03.673Z,10.38
2022-12-25T00:04:05.364Z,10.60
2022-12-25T00:06:07.308Z,10.40
2022-12-25T00:08:09.982Z,11.32
2022-12-25T00:10:11.816Z,11.25
2022-12-25T00:12:13.274Z,10.50
2022-12-25T00:14:14.714Z,10.93
2022-12-25T00:16:20.461Z,11.25
2022-12-25T00:18:22.595Z,11.02
2022-12-25T00:20:24.110Z,11.10
2022-12-25T00:22:25.572Z,11.45
2022-12-25T00:24:27.032Z,11.85
2022-12-25T00:26:28.595Z,11.15
2022-12-25T00:28:30.054Z,11.13
2022-12-25T00:30:31.569Z,11.32
2022-12-25T00:32:36.480Z,11.48
2022-12-25T00:34:37.925Z,11.57
2022-12-25T00:36:41.924Z,10.60
2022-12-25T00:38:43.904Z,12.25
2022-12-25T00:40:45.380Z,10.00
2022-12-25T00:42:49.200Z,11.45
2022-12-25T00:44:50.977Z,10.63
2022-12-25T00:46:52.576Z,10.90
2022-12-25T00:48:54.110Z,11.13
2022-12-25T00:50:57.563Z,10.05
2022-12-25T00:52:59.007Z,10.18
2022-12-25T00:55:00.566Z,10.43
2022-12-25T00:57:02.381Z,9.45
2022-12-25T00:59:03.910Z,9.63
2022-12-25T01:01:05.516Z,8.82
2022-12-25T01:03:07.049Z,11.57
2022-12-25T01:05:09.146Z,11.00
2022-12-25T01:07:11.556Z,9.10
2022-12-25T01:09:31.308Z,9.50
2022-12-25T01:11:32.877Z,10.15
2022-12-25T01:13:37.745Z,10.05
2022-12-25T01:15:39.226Z,9.65
2022-12-25T01:17:42.293Z,9.85
2022-12-25T01:19:43.728Z,10.50
2022-12-25T01:21:45.177Z,9.75
2022-12-25T01:23:48.395Z,10.45
2022-12-25T01:25:49.882Z,10.35
2022-12-25T01:27:51.423Z,10.02
2022-12-25T01:29:52.889Z,10.32
2022-12-25T01:31:54.404Z,9.85
2022-12-25T01:33:56.004Z,12.45
2022-12-25T01:35:58.688Z,10.35
2022-12-25T01:38:00.240Z,10.27
2022-12-25T01:40:01.829Z,9.23
2022-12-25T01:42:03.427Z,10.00
2022-12-25T01:44:37.235Z,8.52
2022-12-25T01:46:38.706Z,8.63
2022-12-25T01:48:40.197Z,10.50
2022-12-25T01:50:45.989Z,9.93
2022-12-25T01:52:48.264Z,9.15
2022-12-25T01:54:51.710Z,9.57
2022-12-25T01:56:56.783Z,9.23
2022-12-25T01:58:59.787Z,9.55
2022-12-25T02:01:01.331Z,10.23
2022-12-25T02:03:03.826Z,9.30
2022-12-25T02:05:15.677Z,10.27
2022-12-25T02:07:20.410Z,9.75
2022-12-25T02:09:21.888Z,9.48
2022-12-25T02:11:42.064Z,9.85
2022-12-25T02:13:43.558Z,9.05
2022-12-25T02:15:45.010Z,8.05
2022-12-25T02:17:57.417Z,9.38
2022-12-25T02:20:26.359Z,8.63
2022-12-25T02:22:44.285Z,9.30
2022-12-25T02:25:05.534Z,9.05
2022-12-25T02:27:26.736Z,9.20
2022-12-25T02:29:50.086Z,8.27
2022-12-25T02:32:28.109Z,8.32
2022-12-25T02:34:29.483Z,7.82
2022-12-25T02:36:53.869Z,7.97
2022-12-25T02:39:19.803Z,8.63
2022-12-25T02:41:21.609Z,9.20
2022-12-25T02:43:48.475Z,8.15
2022-12-25T02:46:13.832Z,8.40
2022-12-25T02:48:35.574Z,7.55
2022-12-25T02:50:55.928Z,7.38
2022-12-25T02:53:20.294Z,8.98
2022-12-25T02:55:44.552Z,10.80
2022-12-25T02:58:09.385Z,8.88
2022-12-25T03:00:30.724Z,8.13
2022-12-25T03:02:51.974Z,8.27
2022-12-25T03:05:15.305Z,7.75
2022-12-25T03:07:20.519Z,7.82
2022-12-25T03:09:45.789Z,9.75
2022-12-25T03:11:54.592Z,9.95
2022-12-25T03:16:39.388Z,9.10
2022-12-25T03:18:41.794Z,8.88
2022-12-25T03:21:02.371Z,8.68
2022-12-25T03:23:24.428Z,8.25
2022-12-25T03:25:47.385Z,8.20
2022-12-25T03:27:54.478Z,9.90
2022-12-25T03:30:14.935Z,7.13
2022-12-25T03:32:25.231Z,8.25
2022-12-25T03:34:58.653Z,8.93
2022-12-25T03:37:36.625Z,9.10
2022-12-25T03:39:54.945Z,8.50
2022-12-25T03:42:20.950Z,8.93
2022-12-25T03:44:42.829Z,8.75
2022-12-25T03:47:07.067Z,10.13
2022-12-25T03:49:35.591Z,9.13
2022-12-25T03:51:57.422Z,9.77
2022-12-25T03:54:24.331Z,9.48
2022-12-25T03:56:48.192Z,9.90
2022-12-25T03:59:11.111Z,9.23
2022-12-25T04:01:31.571Z,10.27
2022-12-25T04:03:51.771Z,11.00
2022-12-25T04:06:11.937Z,9.35
2022-12-25T04:08:31.698Z,10.20
2022-12-25T04:10:51.693Z,9.93
2022-12-25T04:13:12.026Z,9.30
2022-12-25T04:15:31.836Z,9.60
2022-12-25T04:17:51.782Z,9.27
2022-12-25T04:20:11.629Z,8.40
2022-12-25T04:22:31.466Z,9.00
2022-12-25T04:24:51.332Z,9.57
2022-12-25T04:27:11.115Z,9.02
2022-12-25T04:29:30.775Z,8.43
2022-12-25T04:31:50.762Z,9.18
2022-12-25T04:34:18.053Z,10.65
2022-12-25T04:36:19.780Z,9.85
2022-12-25T04:38:22.294Z,12.20
2022-12-25T04:40:23.882Z,10.80
2022-12-25T04:42:25.343Z,11.18
2022-12-25T04:44:27.177Z,10.85
2022-12-25T04:46:28.721Z,9.50
2022-12-25T04:48:32.839Z,8.95
2022-12-25T04:50:34.305Z,9.38
2022-12-25T04:52:37.852Z,9.20
2022-12-25T04:54:39.325Z,9.27
2022-12-25T04:56:45.486Z,10.57
2022-12-25T04:58:47.695Z,9.88
2022-12-25T05:00:49.158Z,10.75
2022-12-25T05:02:50.801Z,9.18
2022-12-25T05:04:52.350Z,8.82
2022-12-25T05:06:53.818Z,8.48
2022-12-25T05:08:55.327Z,9.23
2022-12-25T05:10:56.793Z,10.10
2022-12-25T05:12:58.224Z,9.30
2022-12-25T05:14:59.680Z,8.48
2022-12-25T05:17:01.153Z,8.70
2022-12-25T05:19:02.655Z,8.77
2022-12-25T05:21:04.588Z,9.38
2022-12-25T05:23:06.126Z,8.98
2022-12-25T05:25:07.953Z,9.43
2022-12-25T05:27:09.431Z,9.35
2022-12-25T05:29:11.032Z,8.93
2022-12-25T05:31:12.575Z,9.25
2022-12-25T05:33:14.222Z,8.95
2022-12-25T05:35:15.865Z,9.82
2022-12-25T05:37:17.312Z,9.10
2022-12-25T05:39:19.094Z,9.55
2022-12-25T05:41:20.688Z,9.52
2022-12-25T05:43:22.185Z,9.43
2022-12-25T05:45:23.652Z,9.13
2022-12-25T05:47:25.129Z,9.65
2022-12-25T05:49:26.557Z,9.30
2022-12-25T05:51:28.088Z,8.30
2022-12-25T05:53:29.539Z,9.02
2022-12-25T05:55:30.993Z,8.20
2022-12-25T05:57:32.533Z,9.07
2022-12-25T05:59:34.209Z,8.75
2022-12-25T06:01:35.707Z,7.72
2022-12-25T06:03:37.382Z,8.13
2022-12-25T06:05:39.785Z,8.93
2022-12-25T06:07:41.316Z,8.50
2022-12-25T06:09:43.781Z,8.73
2022-12-25T06:11:45.897Z,8.77
2022-12-25T06:13:52.116Z,8.10
2022-12-25T06:15:53.762Z,8.45
2022-12-25T06:17:55.339Z,8.77
2022-12-25T06:19:56.788Z,8.50
2022-12-25T06:21:58.284Z,8.07
2022-12-25T06:24:00.759Z,8.55
2022-12-25T06:26:07.639Z,8.27
2022-12-25T06:28:09.111Z,8.82
2022-12-25T06:30:10.879Z,8.98
2022-12-25T06:32:12.375Z,8.57
2022-12-25T06:34:16.465Z,8.68
2022-12-25T06:36:24.265Z,8.40
2022-12-25T06:38:25.787Z,9.95
2022-12-25T06:40:27.277Z,9.25
2022-12-25T06:42:28.738Z,8.50
2022-12-25T06:44:30.205Z,8.52
2022-12-25T06:46:31.732Z,8.70
2022-12-25T06:48:34.230Z,8.27
2022-12-25T06:50:35.675Z,7.85
2022-12-25T06:52:37.120Z,8.32
2022-12-25T06:54:38.590Z,8.55
2022-12-25T06:56:40.122Z,8.30
2022-12-25T06:58:46.407Z,9.00
2022-12-25T07:00:47.920Z,8.57
2022-12-25T07:02:49.780Z,9.30
2022-12-25T07:04:52.542Z,8.60
2022-12-25T07:06:54.164Z,8.60
2022-12-25T07:08:55.636Z,8.43
2022-12-25T07:10:57.153Z,8.73
2022-12-25T07:12:58.599Z,8.50
2022-12-25T07:15:00.080Z,8.20
2022-12-25T07:17:01.633Z,8.02
2022-12-25T07:19:03.229Z,8.10
2022-12-25T07:21:14.058Z,8.20
2022-12-25T07:23:15.549Z,8.05
2022-12-25T07:25:17.029Z,8.55
2022-12-25T07:27:18.533Z,8.13
2022-12-25T07:29:19.992Z,9.10
2022-12-25T07:31:21.751Z,8.75
2022-12-25T07:33:23.328Z,9.35
2022-12-25T07:35:24.838Z,8.00
2022-12-25T07:37:26.288Z,9.10
2022-12-25T07:39:28.185Z,8.35
2022-12-25T07:41:29.664Z,7.75
2022-12-25T07:43:31.151Z,7.82
2022-12-25T07:45:32.621Z,7.90
2022-12-25T07:47:34.128Z,8.30
2022-12-25T07:49:36.098Z,8.45
2022-12-25T07:51:37.801Z,7.57
2022-12-25T07:53:39.583Z,7.50
2022-12-25T07:55:41.076Z,7.60
2022-12-25T07:57:42.679Z,7.65
2022-12-25T07:59:44.172Z,8.60
2022-12-25T08:01:46.010Z,7.07
2022-12-25T08:03:53.157Z,7.45
2022-12-25T08:05:54.713Z,6.93
2022-12-25T08:07:58.091Z,7.93
2022-12-25T08:09:59.655Z,7.88
2022-12-25T08:12:01.159Z,7.93
2022-12-25T08:14:05.885Z,7.53
2022-12-25T08:16:10.117Z,7.35
2022-12-25T08:18:11.733Z,7.32
2022-12-25T08:20:13.679Z,8.45
2022-12-25T08:22:15.216Z,8.32
2022-12-25T08:24:16.662Z,7.88
2022-12-25T08:26:22.536Z,8.18
2022-12-25T08:28:23.978Z,7.93
2022-12-25T08:30:25.490Z,7.00
2022-12-25T08:32:27.004Z,7.40
2022-12-25T08:34:28.493Z,7.60
2022-12-25T08:36:30.750Z,7.95
2022-12-25T08:38:32.495Z,7.78
2022-12-25T08:40:33.959Z,7.70
2022-12-25T08:42:35.417Z,7.18
2022-12-25T08:44:36.878Z,7.32
2022-12-25T08:46:39.837Z,7.82
2022-12-25T08:48:43.620Z,9.05
2022-12-25T08:50:49.917Z,8.25
2022-12-25T08:52:51.392Z,8.00
2022-12-25T08:54:52.842Z,7.65
2022-12-25T08:57:02.128Z,7.00
2022-12-25T08:59:04.099Z,7.45
2022-12-25T09:01:06.302Z,8.45
2022-12-25T09:03:07.982Z,8.98
2022-12-25T09:05:09.911Z,7.78
2022-12-25T09:07:11.573Z,8.40
2022-12-25T09:09:13.078Z,8.18
2022-12-25T09:11:15.123Z,6.88
2022-12-25T09:13:16.676Z,8.55
2022-12-25T09:15:18.233Z,7.55
2022-12-25T09:17:19.738Z,7.72
2022-12-25T09:19:22.101Z,8.18
2022-12-25T09:21:23.841Z,6.50
2022-12-25T09:23:25.432Z,7.80
2022-12-25T09:25:27.037Z,7.47
2022-12-25T09:27:28.507Z,7.28
2022-12-25T09:29:29.942Z,7.85
2022-12-25T09:31:31.619Z,8.00
2022-12-25T09:33:33.196Z,8.50
2022-12-25T09:35:34.914Z,7.95
2022-12-25T09:37:36.359Z,7.93
2022-12-25T09:39:42.279Z,7.80
2022-12-25T09:41:50.304Z,7.50
2022-12-25T09:43:57.483Z,8.10
2022-12-25T09:46:02.309Z,7.90
2022-12-25T09:48:04.248Z,6.70
2022-12-25T09:50:14.895Z,7.35
2022-12-25T09:52:37.584Z,7.80
2022-12-25T09:54:46.593Z,7.47
2022-12-25T09:56:48.326Z,7.03
2022-12-25T09:58:49.790Z,8.02
2022-12-25T10:01:02.009Z,7.55
2022-12-25T10:03:24.203Z,8.27
2022-12-25T10:05:37.958Z,7.03
2022-12-25T10:08:09.941Z,6.80
2022-12-25T10:10:49.439Z,7.22
2022-12-25T10:12:59.663Z,7.60
2022-12-25T10:15:17.541Z,6.55
2022-12-25T10:17:28.370Z,7.28
2022-12-25T10:19:57.392Z,6.97
2022-12-25T10:22:03.947Z,6.93
2022-12-25T10:24:31.260Z,6.22
2022-12-25T10:26:34.344Z,6.45
2022-12-25T10:28:43.637Z,7.03
2022-12-25T10:30:45.526Z,6.50
2022-12-25T10:32:48.025Z,5.88
2022-12-25T10:34:50.040Z,6.43
2022-12-25T10:36:52.180Z,6.10
2022-12-25T10:38:54.648Z,5.88
2022-12-25T10:41:21.331Z,5.40
2022-12-25T10:43:35.666Z,6.72
2022-12-25T10:45:48.621Z,5.47
2022-12-25T10:47:59.539Z,5.47
2022-12-25T10:50:20.265Z,6.30
2022-12-25T10:52:25.133Z,6.35
2022-12-25T10:54:29.666Z,5.57
2022-12-25T10:56:31.196Z,5.95
2022-12-25T10:58:33.786Z,6.28
2022-12-25T11:00:35.312Z,6.50
2022-12-25T11:02:40.774Z,6.07
2022-12-25T11:04:42.994Z,6.10
2022-12-25T11:06:44.467Z,6.00
2022-12-25T11:08:52.967Z,6.10
2022-12-25T11:11:08.492Z,6.00
2022-12-25T11:13:24.387Z,6.03
2022-12-25T11:15:34.182Z,6.10
2022-12-25T11:17:35.925Z,6.78
2022-12-25T11:19:37.359Z,6.45
2022-12-25T11:21:38.834Z,5.65
2022-12-25T11:23:48.290Z,5.88
2022-12-25T11:26:05.477Z,6.68
2022-12-25T11:28:07.270Z,5.82
2022-12-25T11:30:16.170Z,6.72
2022-12-25T11:32:27.839Z,7.60
2022-12-25T11:34:37.045Z,7.10
2022-12-25T11:36:46.148Z,7.78
2022-12-25T11:38:47.884Z,6.18
2022-12-25T11:40:52.237Z,6.85
2022-12-25T11:43:07.912Z,7.47
2022-12-25T11:45:31.331Z,6.68
2022-12-25T11:47:59.834Z,7.10
2022-12-25T11:50:14.007Z,7.80
2022-12-25T11:52:17.375Z,7.50
2022-12-25T11:54:33.526Z,6.97
2022-12-25T11:56:37.831Z,8.13
2022-12-25T11:58:49.388Z,7.70
2022-12-25T12:00:54.330Z,7.53
2022-12-25T12:03:03.956Z,7.07
2022-12-25T12:05:17.854Z,6.65
2022-12-25T12:07:25.486Z,6.28
2022-12-25T12:09:53.628Z,10.10
2022-12-25T12:12:36.407Z,7.90
2022-12-25T12:14:47.876Z,7.10
2022-12-25T12:16:49.516Z,6.57
2022-12-25T12:18:51.146Z,6.07
2022-12-25T12:21:18.366Z,5.65
2022-12-25T12:23:19.932Z,6.10
2022-12-25T12:25:22.294Z,5.97
2022-12-25T12:27:26.584Z,6.32
2022-12-25T12:29:45.615Z,6.45
2022-12-25T12:31:50.469Z,5.15
2022-12-25T12:33:56.105Z,6.20
2022-12-25T12:35:58.162Z,5.70
2022-12-25T12:38:04.258Z,5.88
2022-12-25T12:40:21.316Z,5.30
2022-12-25T12:42:30.982Z,5.43
2022-12-25T12:44:36.711Z,6.28
2022-12-25T12:46:39.949Z,6.05
2022-12-25T12:48:44.649Z,5.65
2022-12-25T12:50:46.588Z,5.05
2022-12-25T12:52:48.091Z,6.18
2022-12-25T12:54:59.446Z,5.68
2022-12-25T12:57:04.551Z,5.95
2022-12-25T12:59:09.840Z,6.30
2022-12-25T13:01:18.814Z,5.93
2022-12-25T13:03:45.067Z,6.28
2022-12-25T13:05:49.588Z,6.63
2022-12-25T13:08:05.634Z,7.40
2022-12-25T13:10:23.833Z,7.57
2022-12-25T13:12:25.588Z,8.35
2022-12-25T13:14:27.468Z,6.38
2022-12-25T13:16:36.933Z,6.07
2022-12-25T13:18:39.700Z,6.70
2022-12-25T13:20:57.320Z,5.93
2022-12-25T13:22:58.788Z,9.82
2022-12-25T13:25:02.630Z,7.18
2022-12-25T13:27:22.822Z,6.82
2022-12-25T13:29:36.285Z,6.80
2022-12-25T13:31:40.562Z,6.63
2022-12-25T13:33:58.160Z,6.85
2022-12-25T13:35:59.857Z,6.55
2022-12-25T13:38:01.370Z,6.22
2022-12-25T13:40:07.840Z,6.32
2022-12-25T13:42:10.049Z,6.38
2022-12-25T13:44:23.637Z,6.65
2022-12-25T13:46:27.500Z,5.82
2022-12-25T13:48:29.065Z,6.57
2022-12-25T13:50:33.143Z,6.15
2022-12-25T13:52:37.637Z,5.60
2022-12-25T13:54:39.520Z,6.70
2022-12-25T13:56:59.155Z,5.82
2022-12-25T13:59:00.712Z,6.03
2022-12-25T14:01:03.412Z,6.53
2022-12-25T14:03:09.911Z,6.60
2022-12-25T14:05:39.805Z,5.68
2022-12-25T14:07:50.242Z,6.28
2022-12-25T14:10:03.302Z,6.30
2022-12-25T14:12:05.272Z,5.50
2022-12-25T14:14:17.876Z,6.60
2022-12-25T14:16:21.093Z,5.57
2022-12-25T14:18:24.191Z,5.80
2022-12-25T14:20:33.701Z,6.63
2022-12-25T14:22:36.000Z,6.93
2022-12-25T14:24:39.489Z,7.70
2022-12-25T14:26:41.426Z,6.40
2022-12-25T14:28:48.208Z,6.32
2022-12-25T14:30:49.813Z,7.07
2022-12-25T14:32:54.325Z,6.45
2022-12-25T14:35:00.203Z,6.63
2022-12-25T14:37:03.749Z,7.22
2022-12-25T14:39:07.604Z,7.47
2022-12-25T14:41:33.291Z,8.48
2022-12-25T14:43:36.361Z,6.75
2022-12-25T14:45:41.050Z,7.95
2022-12-25T14:47:54.723Z,7.57
2022-12-25T14:49:56.752Z,8.32
2022-12-25T14:51:58.746Z,7.82
2022-12-25T14:54:03.837Z,7.43
2022-12-25T14:56:07.789Z,7.43
2022-12-25T14:58:20.517Z,8.40
2022-12-25T15:00:31.667Z,7.90
2022-12-25T15:02:45.792Z,8.05
2022-12-25T15:04:47.496Z,8.13
2022-12-25T15:06:57.619Z,7.50
2022-12-25T15:09:01.780Z,8.88
2022-12-25T15:11:03.689Z,10.80
2022-12-25T15:13:06.221Z,8.25
2022-12-25T15:15:08.127Z,7.90
2022-12-25T15:17:24.536Z,7.80
2022-12-25T15:19:36.944Z,7.20
2022-12-25T15:21:39.174Z,7.50
2022-12-25T15:23:41.947Z,7.57
2022-12-25T15:25:43.438Z,7.53
2022-12-25T15:27:44.905Z,7.10
2022-12-25T15:30:09.077Z,7.60
2022-12-25T15:32:24.164Z,8.00
2022-12-25T15:34:25.595Z,7.70
2022-12-25T15:36:27.865Z,7.70
2022-12-25T15:38:36.342Z,8.43
2022-12-25T15:40:38.640Z,8.18
2022-12-25T15:42:41.132Z,8.95
2022-12-25T15:44:43.675Z,8.05
2022-12-25T15:46:46.061Z,7.50
2022-12-25T15:48:47.617Z,7.95
2022-12-25T15:50:49.402Z,7.78
2022-12-25T15:52:51.039Z,7.95
2022-12-25T15:54:54.139Z,8.82
2022-12-25T15:56:58.445Z,7.85
2022-12-25T15:58:59.898Z,10.40
2022-12-25T16:01:01.693Z,7.97
2022-12-25T16:03:03.351Z,8.05
2022-12-25T16:05:10.274Z,7.35
2022-12-25T16:07:20.779Z,8.57
2022-12-25T16:09:22.397Z,8.35
2022-12-25T16:11:23.870Z,8.68
2022-12-25T16:13:25.361Z,8.98
2022-12-25T16:15:26.821Z,8.48
2022-12-25T16:17:28.332Z,9.07
2022-12-25T16:19:29.829Z,9.32
2022-12-25T16:21:41.143Z,9.35
2022-12-25T16:23:43.218Z,8.63
2022-12-25T16:25:44.976Z,8.75
2022-12-25T16:27:46.704Z,8.70
2022-12-25T16:29:48.199Z,9.23
2022-12-25T16:31:49.674Z,9.15
2022-12-25T16:33:52.893Z,8.85
2022-12-25T16:35:55.012Z,8.65
2022-12-25T16:37:56.478Z,10.23
2022-12-25T16:39:57.928Z,10.93
2022-12-25T16:41:59.552Z,9.00
2022-12-25T16:44:09.298Z,9.27
2022-12-25T16:46:15.238Z,9.88
2022-12-25T16:48:16.818Z,9.65
2022-12-25T16:50:18.653Z,9.35
2022-12-25T16:52:20.165Z,9.57
2022-12-25T16:54:21.668Z,9.95
2022-12-25T16:56:28.284Z,9.18
2022-12-25T16:58:31.481Z,9.00
2022-12-25T17:00:32.925Z,9.65
2022-12-25T17:02:34.771Z,9.00
2022-12-25T17:04:36.446Z,10.05
2022-12-25T17:06:37.915Z,9.55
2022-12-25T17:08:39.387Z,10.20
2022-12-25T17:10:40.825Z,11.25
2022-12-25T17:12:42.477Z,10.50
2022-12-25T17:14:43.949Z,9.80
2022-12-25T17:16:45.743Z,9.05
2022-12-25T17:18:47.343Z,9.45
2022-12-25T17:20:50.047Z,8.90
2022-12-25T17:22:51.588Z,9.15
2022-12-25T17:24:53.097Z,8.95
2022-12-25T17:26:54.592Z,9.40
2022-12-25T17:28:57.146Z,8.35
2022-12-25T17:31:10.599Z,8.43
2022-12-25T17:33:12.156Z,9.00
2022-12-25T17:35:13.732Z,8.57
2022-12-25T17:37:15.170Z,8.77
2022-12-25T17:39:16.632Z,9.65
2022-12-25T17:41:19.088Z,9.88
2022-12-25T17:43:21.167Z,9.95
2022-12-25T17:45:22.771Z,9.88
2022-12-25T17:47:24.229Z,10.00
2022-12-25T17:49:26.188Z,10.50
2022-12-25T17:51:29.518Z,10.20
2022-12-25T17:53:31.177Z,9.13
2022-12-25T17:55:36.360Z,10.73
2022-12-25T17:57:38.858Z,10.15
2022-12-25T17:59:42.560Z,10.07
2022-12-25T18:01:44.215Z,10.90
2022-12-25T18:03:47.094Z,9.77
2022-12-25T18:05:48.962Z,10.60
2022-12-25T18:07:50.445Z,9.05
2022-12-25T18:09:51.896Z,9.65
2022-12-25T18:11:53.371Z,9.60
2022-12-25T18:13:57.936Z,9.98
2022-12-25T18:16:07.405Z,9.23
2022-12-25T18:18:09.321Z,9.82
2022-12-25T18:20:11.047Z,9.82
2022-12-25T18:22:12.529Z,11.18
2022-12-25T18:24:14.015Z,11.07
2022-12-25T18:26:15.813Z,10.50
2022-12-25T18:28:17.584Z,10.60
2022-12-25T18:30:20.010Z,9.80
2022-12-25T18:32:27.852Z,10.88
2022-12-25T18:34:29.671Z,10.20
2022-12-25T18:36:31.611Z,10.23
2022-12-25T18:38:33.331Z,10.60
2022-12-25T18:40:40.149Z,10.85
2022-12-25T18:42:43.022Z,9.80
2022-12-25T18:44:45.008Z,9.82
2022-12-25T18:46:46.469Z,10.10
2022-12-25T18:48:47.960Z,9.57
2022-12-25T18:50:56.428Z,9.68
2022-12-25T18:52:57.887Z,9.57
2022-12-25T18:54:59.399Z,9.70
2022-12-25T18:57:06.868Z,10.15
2022-12-25T18:59:08.695Z,10.87
2022-12-25T19:01:12.414Z,10.30
2022-12-25T19:03:14.334Z,10.20
2022-12-25T19:05:16.109Z,10.43
2022-12-25T19:07:17.595Z,10.45
2022-12-25T19:09:20.151Z,11.90
2022-12-25T19:11:22.809Z,12.65
2022-12-25T19:13:24.337Z,13.57
2022-12-25T19:15:25.930Z,11.98
2022-12-25T19:17:31.928Z,11.02
2022-12-25T19:19:33.851Z,10.48
2022-12-25T19:21:35.339Z,11.60
2022-12-25T19:23:37.996Z,11.25
2022-12-25T19:25:40.559Z,11.77
2022-12-25T19:27:42.018Z,14.68
2022-12-25T19:29:43.594Z,10.25
2022-12-25T19:31:45.142Z,11.70
2022-12-25T19:33:46.602Z,8.45
2022-12-25T19:35:49.005Z,9.50
2022-12-25T19:37:50.564Z,10.38
2022-12-25T19:39:52.007Z,10.60
2022-12-25T19:41:53.467Z,9.00
2022-12-25T19:43:54.913Z,8.07
2022-12-25T19:45:57.155Z,7.45
2022-12-25T19:47:58.690Z,7.35
2022-12-25T19:50:03.193Z,7.68
2022-12-25T19:52:05.611Z,8.98
2022-12-25T19:54:07.676Z,7.57
2022-12-25T19:56:09.520Z,7.10
2022-12-25T19:58:11.561Z,6.80
2022-12-25T20:00:13.366Z,6.75
2022-12-25T20:02:15.022Z,8.55
2022-12-25T20:04:18.190Z,7.45
2022-12-25T20:06:25.866Z,7.90
2022-12-25T20:08:27.936Z,8.02
2022-12-25T20:10:29.632Z,6.68
2022-12-25T20:12:31.170Z,8.50
2022-12-25T20:14:32.717Z,9.45
2022-12-25T20:16:38.142Z,9.32
2022-12-25T20:18:40.463Z,8.68
2022-12-25T20:20:42.887Z,8.35
2022-12-25T20:22:44.344Z,7.57
2022-12-25T20:24:47.715Z,7.13
2022-12-25T20:26:53.753Z,8.05
2022-12-25T20:28:59.316Z,7.88
2022-12-25T20:31:17.449Z,8.52
2022-12-25T20:33:19.010Z,8.27
2022-12-25T20:35:20.465Z,8.43
2022-12-25T20:37:22.044Z,7.95
2022-12-25T20:39:23.541Z,8.13
2022-12-25T20:41:27.427Z,8.40
2022-12-25T20:43:30.664Z,7.53
2022-12-25T20:45:32.429Z,8.05
2022-12-25T20:47:35.017Z,8.65
2022-12-25T20:49:36.510Z,7.80
2022-12-25T20:51:38.184Z,10.50
2022-12-25T20:53:40.540Z,18.52
2022-12-25T20:55:49.701Z,18.50
2022-12-25T20:57:51.273Z,12.38
2022-12-25T20:59:53.429Z,15.68
2022-12-25T21:01:55.931Z,14.93
2022-12-25T21:03:58.212Z,14.45
2022-12-25T21:06:00.046Z,15.55
2022-12-25T21:08:02.170Z,13.88
2022-12-25T21:10:04.676Z,14.35
2022-12-25T21:12:06.849Z,14.32
2022-12-25T21:14:08.756Z,15.25
2022-12-25T21:16:13.568Z,14.63
2022-12-25T21:18:20.538Z,13.65
2022-12-25T21:20:22.042Z,12.88
2022-12-25T21:22:23.512Z,10.30
2022-12-25T21:24:25.010Z,13.27
2022-12-25T21:26:28.743Z,14.57
2022-12-25T21:28:32.256Z,15.95
2022-12-25T21:30:34.301Z,14.75
2022-12-25T21:33:16.979Z,13.55
2022-12-25T21:35:18.840Z,14.25
2022-12-25T21:37:20.284Z,14.13
2022-12-25T21:39:21.924Z,13.93
2022-12-25T21:41:24.785Z,12.60
2022-12-25T21:43:26.280Z,13.40
2022-12-25T21:45:28.506Z,12.48
2022-12-25T21:48:01.899Z,13.77
2022-12-25T21:50:10.033Z,13.27
2022-12-25T21:52:12.103Z,13.52
2022-12-25T21:54:14.471Z,16.15
2022-12-25T21:56:16.465Z,15.05
2022-12-25T21:58:17.901Z,14.27
2022-12-25T22:00:19.867Z,13.75
2022-12-25T22:02:22.359Z,12.70
2022-12-25T22:04:24.005Z,12.90
2022-12-25T22:06:48.282Z,12.93
2022-12-25T22:08:49.792Z,13.65
2022-12-25T22:10:51.313Z,13.63
2022-12-25T22:13:11.224Z,15.43
2022-12-25T22:15:12.774Z,14.15
2022-12-25T22:17:33.012Z,14.18
2022-12-25T22:19:48.134Z,14.43
2022-12-25T22:21:49.630Z,14.45
2022-12-25T22:23:51.207Z,15.70
2022-12-25T22:25:52.694Z,15.23
2022-12-25T22:27:54.888Z,14.60
2022-12-25T22:29:57.026Z,15.23
2022-12-25T22:31:58.573Z,14.50
2022-12-25T22:34:00.038Z,14.60
2022-12-25T22:36:07.258Z,14.80
2022-12-25T22:38:08.804Z,15.05
2022-12-25T22:40:13.643Z,14.68
2022-12-25T22:42:15.763Z,14.55
2022-12-25T22:44:18.209Z,14.80
2022-12-25T22:46:20.099Z,15.73
2022-12-25T22:48:21.596Z,15.38
2022-12-25T22:50:23.167Z,15.45
2022-12-25T22:52:24.928Z,15.00
2022-12-25T22:54:29.333Z,15.80
2022-12-25T22:56:30.945Z,15.02
2022-12-25T22:58:32.398Z,15.02
2022-12-25T23:00:33.872Z,13.45
2022-12-25T23:02:35.591Z,13.73
2022-12-25T23:04:37.258Z,13.98
2022-12-25T23:06:39.774Z,13.65
2022-12-25T23:08:41.258Z,15.15
2022-12-25T23:10:42.720Z,14.98
2022-12-25T23:13:02.568Z,14.18
2022-12-25T23:15:04.377Z,14.10
2022-12-25T23:17:28.312Z,14.63
2022-12-25T23:19:48.483Z,13.52
2022-12-25T23:22:08.892Z,13.63
2022-12-25T23:24:29.228Z,13.38
2022-12-25T23:26:30.750Z,13.88
2022-12-25T23:28:50.762Z,14.35
2022-12-25T23:30:52.232Z,15.02
2022-12-25T23:32:53.703Z,14.48
2022-12-25T23:34:55.893Z,15.10
2022-12-25T23:36:57.672Z,14.27
2022-12-25T23:39:04.870Z,14.50
2022-12-25T23:41:10.360Z,14.52
2022-12-25T23:43:11.907Z,14.80
2022-12-25T23:45:13.789Z,14.13
2022-12-25T23:47:15.314Z,15.40
2022-12-25T23:49:17.227Z,14.95
2022-12-25T23:51:18.702Z,14.27
2022-12-25T23:53:20.182Z,15.45
2022-12-25T23:55:21.752Z,13.88
2022-12-25T23:57:23.279Z,16.48
2022-12-25T23:59:26.445Z,15.48
